sensor_id;sensor_type;location;lat;lon;timestamp;temperature;humidity
5457;DHT22;2751;49.802;9.944;2022-07-11T00:02:14;17.00;99.90
5457;DHT22;2751;49.802;9.944;2022-07-11T00:04:42;17.00;99.90
5457;DHT22;2751;49.802;9.944;2022-07-11T00:07:09;17.10;99.90
5457;DHT22;2751;49.802;9.944;2022-07-11T00:09:36;17.00;1.00
5457;DHT22;2751;49.802;9.944;2022-07-11T00:12:04;17.10;99.90
5457;DHT22;2751;49.802;9.944;2022-07-11T00:14:33;17.10;1.00
5457;DHT22;2751;49.802;9.944;2022-07-11T00:17:00;17.10;1.00
5457;DHT22;2751;49.802;9.944;2022-07-11T00:19:27;17.20;1.00
5457;DHT22;2751;49.802;9.944;2022-07-11T00:21:54;17.20;1.00
5457;DHT22;2751;49.802;9.944;2022-07-11T00:24:21;17.10;99.90
5457;DHT22;2751;49.802;9.944;2022-07-11T00:26:50;17.10;99.90
5457;DHT22;2751;49.802;9.944;2022-07-11T00:29:17;17.10;57.00
5457;DHT22;2751;49.802;9.944;2022-07-11T00:31:45;17.10;99.90
5457;DHT22;2751;49.802;9.944;2022-07-11T00:34:12;17.10;1.00
5457;DHT22;2751;49.802;9.944;2022-07-11T00:36:40;17.10;1.00
5457;DHT22;2751;49.802;9.944;2022-07-11T00:39:07;17.10;99.90
5457;DHT22;2751;49.802;9.944;2022-07-11T00:41:34;17.00;1.00
5457;DHT22;2751;49.802;9.944;2022-07-11T00:44:01;17.00;99.90
5457;DHT22;2751;49.802;9.944;2022-07-11T00:46:29;17.00;99.90
5457;DHT22;2751;49.802;9.944;2022-07-11T00:48:59;17.00;99.90
5457;DHT22;2751;49.802;9.944;2022-07-11T00:51:27;17.00;99.90
5457;DHT22;2751;49.802;9.944;2022-07-11T00:53:56;16.90;99.90
5457;DHT22;2751;49.802;9.944;2022-07-11T00:56:25;16.90;99.90
5457;DHT22;2751;49.802;9.944;2022-07-11T00:58:53;16.90;40.10
5457;DHT22;2751;49.802;9.944;2022-07-11T01:01:21;17.00;1.00
5457;DHT22;2751;49.802;9.944;2022-07-11T01:03:48;17.00;99.90
5457;DHT22;2751;49.802;9.944;2022-07-11T01:06:16;17.00;1.00
5457;DHT22;2751;49.802;9.944;2022-07-11T01:08:44;17.00;99.90
5457;DHT22;2751;49.802;9.944;2022-07-11T01:11:12;17.10;99.90
5457;DHT22;2751;49.802;9.944;2022-07-11T01:13:41;17.10;99.90
5457;DHT22;2751;49.802;9.944;2022-07-11T01:16:09;17.00;99.90
5457;DHT22;2751;49.802;9.944;2022-07-11T01:18:38;17.00;99.90
5457;DHT22;2751;49.802;9.944;2022-07-11T01:21:11;17.00;99.90
5457;DHT22;2751;49.802;9.944;2022-07-11T01:23:46;16.90;1.00
5457;DHT22;2751;49.802;9.944;2022-07-11T01:26:14;16.90;1.00
5457;DHT22;2751;49.802;9.944;2022-07-11T01:28:41;16.80;99.90
5457;DHT22;2751;49.802;9.944;2022-07-11T01:31:08;16.80;99.90
5457;DHT22;2751;49.802;9.944;2022-07-11T01:33:35;16.80;99.90
5457;DHT22;2751;49.802;9.944;2022-07-11T01:36:03;16.80;99.90
5457;DHT22;2751;49.802;9.944;2022-07-11T01:38:30;16.80;99.90
5457;DHT22;2751;49.802;9.944;2022-07-11T01:40:58;16.80;99.90
5457;DHT22;2751;49.802;9.944;2022-07-11T01:43:25;16.80;99.90
5457;DHT22;2751;49.802;9.944;2022-07-11T01:45:52;16.80;99.90
5457;DHT22;2751;49.802;9.944;2022-07-11T01:48:20;16.80;99.90
5457;DHT22;2751;49.802;9.944;2022-07-11T01:50:48;16.80;99.90
5457;DHT22;2751;49.802;9.944;2022-07-11T01:53:15;16.80;99.90
5457;DHT22;2751;49.802;9.944;2022-07-11T01:55:42;16.80;1.00
5457;DHT22;2751;49.802;9.944;2022-07-11T01:58:11;16.80;99.90
5457;DHT22;2751;49.802;9.944;2022-07-11T02:00:38;16.80;1.00
5457;DHT22;2751;49.802;9.944;2022-07-11T02:03:05;16.80;1.00
5457;DHT22;2751;49.802;9.944;2022-07-11T02:05:32;16.50;1.00
5457;DHT22;2751;49.802;9.944;2022-07-11T02:07:58;16.80;1.00
5457;DHT22;2751;49.802;9.944;2022-07-11T02:10:42;16.70;1.00
5457;DHT22;2751;49.802;9.944;2022-07-11T02:13:11;16.80;1.10
5457;DHT22;2751;49.802;9.944;2022-07-11T02:15:38;16.80;71.50
5457;DHT22;2751;49.802;9.944;2022-07-11T02:18:05;16.70;99.90
5457;DHT22;2751;49.802;9.944;2022-07-11T02:20:34;16.80;1.00
5457;DHT22;2751;49.802;9.944;2022-07-11T02:23:01;16.80;99.90
5457;DHT22;2751;49.802;9.944;2022-07-11T02:25:29;16.80;99.90
5457;DHT22;2751;49.802;9.944;2022-07-11T02:27:56;16.80;99.90
5457;DHT22;2751;49.802;9.944;2022-07-11T02:30:25;16.70;99.90
5457;DHT22;2751;49.802;9.944;2022-07-11T02:32:52;16.70;99.90
5457;DHT22;2751;49.802;9.944;2022-07-11T02:35:20;16.70;99.90
5457;DHT22;2751;49.802;9.944;2022-07-11T02:37:47;16.70;1.00
5457;DHT22;2751;49.802;9.944;2022-07-11T02:40:14;16.80;99.90
5457;DHT22;2751;49.802;9.944;2022-07-11T02:42:41;16.70;99.90
5457;DHT22;2751;49.802;9.944;2022-07-11T02:45:08;16.80;99.90
5457;DHT22;2751;49.802;9.944;2022-07-11T02:47:38;16.50;1.00
5457;DHT22;2751;49.802;9.944;2022-07-11T02:50:07;16.70;99.90
5457;DHT22;2751;49.802;9.944;2022-07-11T02:52:35;16.70;99.90
5457;DHT22;2751;49.802;9.944;2022-07-11T02:55:02;16.70;99.90
5457;DHT22;2751;49.802;9.944;2022-07-11T02:57:29;16.70;1.00
5457;DHT22;2751;49.802;9.944;2022-07-11T02:59:56;16.70;1.00
5457;DHT22;2751;49.802;9.944;2022-07-11T03:02:23;16.70;1.00
5457;DHT22;2751;49.802;9.944;2022-07-11T03:04:51;16.60;1.00
5457;DHT22;2751;49.802;9.944;2022-07-11T03:07:18;16.60;1.00
5457;DHT22;2751;49.802;9.944;2022-07-11T03:09:45;16.60;99.90
5457;DHT22;2751;49.802;9.944;2022-07-11T03:12:12;16.60;99.90
5457;DHT22;2751;49.802;9.944;2022-07-11T03:14:39;16.50;99.90
5457;DHT22;2751;49.802;9.944;2022-07-11T03:17:06;16.50;99.90
5457;DHT22;2751;49.802;9.944;2022-07-11T03:19:32;16.50;99.90
5457;DHT22;2751;49.802;9.944;2022-07-11T03:22:01;16.50;99.90
5457;DHT22;2751;49.802;9.944;2022-07-11T03:24:27;16.60;99.90
5457;DHT22;2751;49.802;9.944;2022-07-11T03:26:54;16.60;98.80
5457;DHT22;2751;49.802;9.944;2022-07-11T03:29:21;16.60;28.50
5457;DHT22;2751;49.802;9.944;2022-07-11T03:31:48;16.60;1.00
5457;DHT22;2751;49.802;9.944;2022-07-11T03:34:15;16.70;1.00
5457;DHT22;2751;49.802;9.944;2022-07-11T03:36:42;16.70;1.00
5457;DHT22;2751;49.802;9.944;2022-07-11T03:39:13;16.70;1.00
5457;DHT22;2751;49.802;9.944;2022-07-11T03:41:40;16.70;5.20
5457;DHT22;2751;49.802;9.944;2022-07-11T03:44:07;16.60;22.20
5457;DHT22;2751;49.802;9.944;2022-07-11T03:46:34;16.70;99.90
5457;DHT22;2751;49.802;9.944;2022-07-11T03:49:01;16.70;1.00
5457;DHT22;2751;49.802;9.944;2022-07-11T03:51:28;16.70;1.00
5457;DHT22;2751;49.802;9.944;2022-07-11T03:53:55;16.70;1.00
5457;DHT22;2751;49.802;9.944;2022-07-11T03:56:23;16.80;1.00
5457;DHT22;2751;49.802;9.944;2022-07-11T03:58:50;16.70;1.00
5457;DHT22;2751;49.802;9.944;2022-07-11T04:01:18;16.70;1.00
5457;DHT22;2751;49.802;9.944;2022-07-11T04:03:46;16.70;1.00
5457;DHT22;2751;49.802;9.944;2022-07-11T04:06:13;16.70;1.00
5457;DHT22;2751;49.802;9.944;2022-07-11T04:08:43;16.80;99.90
5457;DHT22;2751;49.802;9.944;2022-07-11T04:11:10;16.80;1.00
5457;DHT22;2751;49.802;9.944;2022-07-11T04:13:38;16.80;1.00
5457;DHT22;2751;49.802;9.944;2022-07-11T04:16:06;16.70;97.20
5457;DHT22;2751;49.802;9.944;2022-07-11T04:18:32;16.70;1.00
5457;DHT22;2751;49.802;9.944;2022-07-11T04:20:59;16.80;1.00
5457;DHT22;2751;49.802;9.944;2022-07-11T04:23:26;16.70;1.00
5457;DHT22;2751;49.802;9.944;2022-07-11T04:25:53;16.70;1.00
5457;DHT22;2751;49.802;9.944;2022-07-11T04:28:20;16.80;1.00
5457;DHT22;2751;49.802;9.944;2022-07-11T04:30:48;16.80;1.00
5457;DHT22;2751;49.802;9.944;2022-07-11T04:33:15;16.70;1.00
5457;DHT22;2751;49.802;9.944;2022-07-11T04:35:42;16.80;1.00
5457;DHT22;2751;49.802;9.944;2022-07-11T04:38:09;16.80;1.00
5457;DHT22;2751;49.802;9.944;2022-07-11T04:40:36;16.90;99.90
5457;DHT22;2751;49.802;9.944;2022-07-11T04:43:03;16.90;1.00
5457;DHT22;2751;49.802;9.944;2022-07-11T04:45:30;16.90;30.20
5457;DHT22;2751;49.802;9.944;2022-07-11T04:47:58;16.90;1.00
5457;DHT22;2751;49.802;9.944;2022-07-11T04:50:27;17.00;99.90
5457;DHT22;2751;49.802;9.944;2022-07-11T04:52:54;17.00;99.90
5457;DHT22;2751;49.802;9.944;2022-07-11T04:55:21;17.00;99.90
5457;DHT22;2751;49.802;9.944;2022-07-11T04:57:48;17.00;1.00
5457;DHT22;2751;49.802;9.944;2022-07-11T05:00:15;17.10;1.00
5457;DHT22;2751;49.802;9.944;2022-07-11T05:02:42;17.20;99.90
5457;DHT22;2751;49.802;9.944;2022-07-11T05:05:11;17.20;1.00
5457;DHT22;2751;49.802;9.944;2022-07-11T05:07:38;17.30;1.00
5457;DHT22;2751;49.802;9.944;2022-07-11T05:10:05;17.30;1.00
5457;DHT22;2751;49.802;9.944;2022-07-11T05:12:32;17.30;46.70
5457;DHT22;2751;49.802;9.944;2022-07-11T05:15:00;17.20;1.00
5457;DHT22;2751;49.802;9.944;2022-07-11T05:17:27;17.20;99.90
5457;DHT22;2751;49.802;9.944;2022-07-11T05:19:54;17.30;51.90
5457;DHT22;2751;49.802;9.944;2022-07-11T05:22:23;17.20;99.90
5457;DHT22;2751;49.802;9.944;2022-07-11T05:24:50;17.30;99.90
5457;DHT22;2751;49.802;9.944;2022-07-11T05:27:17;17.30;16.00
5457;DHT22;2751;49.802;9.944;2022-07-11T05:29:43;17.30;1.00
5457;DHT22;2751;49.802;9.944;2022-07-11T05:32:10;17.30;1.00
5457;DHT22;2751;49.802;9.944;2022-07-11T05:34:37;17.20;1.00
5457;DHT22;2751;49.802;9.944;2022-07-11T05:37:05;17.20;1.00
5457;DHT22;2751;49.802;9.944;2022-07-11T05:39:33;17.30;1.00
5457;DHT22;2751;49.802;9.944;2022-07-11T05:42:00;17.30;1.00
5457;DHT22;2751;49.802;9.944;2022-07-11T05:44:27;17.40;99.90
5457;DHT22;2751;49.802;9.944;2022-07-11T05:46:58;17.40;99.90
5457;DHT22;2751;49.802;9.944;2022-07-11T05:49:25;17.40;99.90
5457;DHT22;2751;49.802;9.944;2022-07-11T05:51:52;17.40;99.90
5457;DHT22;2751;49.802;9.944;2022-07-11T05:54:19;17.60;19.40
5457;DHT22;2751;49.802;9.944;2022-07-11T05:56:48;17.60;1.00
5457;DHT22;2751;49.802;9.944;2022-07-11T05:59:15;17.60;99.90
5457;DHT22;2751;49.802;9.944;2022-07-11T06:01:41;17.60;1.00
5457;DHT22;2751;49.802;9.944;2022-07-11T06:04:08;17.70;1.00
5457;DHT22;2751;49.802;9.944;2022-07-11T06:06:35;17.60;99.90
5457;DHT22;2751;49.802;9.944;2022-07-11T06:09:02;17.50;99.90
5457;DHT22;2751;49.802;9.944;2022-07-11T06:11:28;17.60;99.90
5457;DHT22;2751;49.802;9.944;2022-07-11T06:13:57;17.70;99.90
5457;DHT22;2751;49.802;9.944;2022-07-11T06:16:24;17.70;97.10
5457;DHT22;2751;49.802;9.944;2022-07-11T06:18:51;17.70;99.90
5457;DHT22;2751;49.802;9.944;2022-07-11T06:21:18;17.80;67.50
5457;DHT22;2751;49.802;9.944;2022-07-11T06:23:45;18.00;1.00
5457;DHT22;2751;49.802;9.944;2022-07-11T06:26:12;18.10;99.90
5457;DHT22;2751;49.802;9.944;2022-07-11T06:28:41;18.10;99.90
5457;DHT22;2751;49.802;9.944;2022-07-11T06:31:09;18.30;99.90
5457;DHT22;2751;49.802;9.944;2022-07-11T06:33:36;18.20;99.90
5457;DHT22;2751;49.802;9.944;2022-07-11T06:36:04;18.20;1.00
5457;DHT22;2751;49.802;9.944;2022-07-11T06:38:34;18.10;1.00
5457;DHT22;2751;49.802;9.944;2022-07-11T06:41:01;18.00;99.90
5457;DHT22;2751;49.802;9.944;2022-07-11T06:43:28;17.90;1.00
5457;DHT22;2751;49.802;9.944;2022-07-11T06:45:55;17.90;1.00
5457;DHT22;2751;49.802;9.944;2022-07-11T06:48:24;18.00;99.90
5457;DHT22;2751;49.802;9.944;2022-07-11T06:50:52;18.10;99.90
5457;DHT22;2751;49.802;9.944;2022-07-11T06:53:19;18.20;1.00
5457;DHT22;2751;49.802;9.944;2022-07-11T06:55:46;18.20;99.90
5457;DHT22;2751;49.802;9.944;2022-07-11T06:58:13;18.00;99.90
5457;DHT22;2751;49.802;9.944;2022-07-11T07:00:58;18.20;1.00
5457;DHT22;2751;49.802;9.944;2022-07-11T07:03:27;18.10;1.00
5457;DHT22;2751;49.802;9.944;2022-07-11T07:05:54;18.70;24.30
5457;DHT22;2751;49.802;9.944;2022-07-11T07:08:23;18.90;99.90
5457;DHT22;2751;49.802;9.944;2022-07-11T07:10:50;18.70;1.00
5457;DHT22;2751;49.802;9.944;2022-07-11T07:13:17;19.00;99.90
5457;DHT22;2751;49.802;9.944;2022-07-11T07:15:44;18.80;1.00
5457;DHT22;2751;49.802;9.944;2022-07-11T07:18:11;18.90;1.00
5457;DHT22;2751;49.802;9.944;2022-07-11T07:20:40;18.80;95.80
5457;DHT22;2751;49.802;9.944;2022-07-11T07:23:07;19.10;99.90
5457;DHT22;2751;49.802;9.944;2022-07-11T07:25:34;19.20;1.00
5457;DHT22;2751;49.802;9.944;2022-07-11T07:28:01;19.20;99.90
5457;DHT22;2751;49.802;9.944;2022-07-11T07:30:28;19.20;99.90
5457;DHT22;2751;49.802;9.944;2022-07-11T07:32:55;19.20;89.70
5457;DHT22;2751;49.802;9.944;2022-07-11T07:35:21;19.10;1.00
5457;DHT22;2751;49.802;9.944;2022-07-11T07:37:50;19.20;99.90
5457;DHT22;2751;49.802;9.944;2022-07-11T07:40:17;19.10;99.90
5457;DHT22;2751;49.802;9.944;2022-07-11T07:42:44;19.20;99.90
5457;DHT22;2751;49.802;9.944;2022-07-11T07:45:11;19.40;1.00
5457;DHT22;2751;49.802;9.944;2022-07-11T07:47:38;19.50;99.90
5457;DHT22;2751;49.802;9.944;2022-07-11T07:50:06;19.50;1.00
5457;DHT22;2751;49.802;9.944;2022-07-11T07:52:33;19.50;99.90
5457;DHT22;2751;49.802;9.944;2022-07-11T07:55:01;19.60;1.00
5457;DHT22;2751;49.802;9.944;2022-07-11T07:57:28;19.80;1.00
5457;DHT22;2751;49.802;9.944;2022-07-11T07:59:55;19.50;1.00
5457;DHT22;2751;49.802;9.944;2022-07-11T08:02:42;19.50;1.00
5457;DHT22;2751;49.802;9.944;2022-07-11T08:05:09;19.50;1.00
5457;DHT22;2751;49.802;9.944;2022-07-11T08:07:35;19.70;1.00
5457;DHT22;2751;49.802;9.944;2022-07-11T08:10:04;19.70;95.90
5457;DHT22;2751;49.802;9.944;2022-07-11T08:12:31;19.70;99.90
5457;DHT22;2751;49.802;9.944;2022-07-11T08:14:58;19.80;1.00
5457;DHT22;2751;49.802;9.944;2022-07-11T08:17:25;20.30;99.90
5457;DHT22;2751;49.802;9.944;2022-07-11T08:19:52;20.70;1.00
5457;DHT22;2751;49.802;9.944;2022-07-11T08:22:19;20.80;99.90
5457;DHT22;2751;49.802;9.944;2022-07-11T08:24:46;20.90;1.00
5457;DHT22;2751;49.802;9.944;2022-07-11T08:27:14;20.60;99.90
5457;DHT22;2751;49.802;9.944;2022-07-11T08:29:41;20.50;1.00
5457;DHT22;2751;49.802;9.944;2022-07-11T08:32:08;20.90;77.00
5457;DHT22;2751;49.802;9.944;2022-07-11T08:34:36;20.90;1.00
5457;DHT22;2751;49.802;9.944;2022-07-11T08:37:04;20.70;1.00
5457;DHT22;2751;49.802;9.944;2022-07-11T08:39:30;21.30;99.90
5457;DHT22;2751;49.802;9.944;2022-07-11T08:41:57;21.30;1.00
5457;DHT22;2751;49.802;9.944;2022-07-11T08:44:26;21.20;1.00
5457;DHT22;2751;49.802;9.944;2022-07-11T08:46:54;21.60;99.10
5457;DHT22;2751;49.802;9.944;2022-07-11T08:49:21;21.60;99.90
5457;DHT22;2751;49.802;9.944;2022-07-11T08:51:48;21.30;1.00
5457;DHT22;2751;49.802;9.944;2022-07-11T08:54:15;21.50;1.00
5457;DHT22;2751;49.802;9.944;2022-07-11T08:56:44;21.90;1.00
5457;DHT22;2751;49.802;9.944;2022-07-11T08:59:13;21.60;36.50
5457;DHT22;2751;49.802;9.944;2022-07-11T09:01:45;21.40;99.90
5457;DHT22;2751;49.802;9.944;2022-07-11T09:04:12;21.20;1.00
5457;DHT22;2751;49.802;9.944;2022-07-11T09:06:40;21.50;99.90
5457;DHT22;2751;49.802;9.944;2022-07-11T09:09:07;21.80;99.90
5457;DHT22;2751;49.802;9.944;2022-07-11T09:11:48;22.20;1.00
5457;DHT22;2751;49.802;9.944;2022-07-11T09:14:21;22.60;99.90
5457;DHT22;2751;49.802;9.944;2022-07-11T09:16:54;22.40;1.00
5457;DHT22;2751;49.802;9.944;2022-07-11T09:19:22;22.70;99.90
5457;DHT22;2751;49.802;9.944;2022-07-11T09:21:57;22.90;99.90
5457;DHT22;2751;49.802;9.944;2022-07-11T09:24:52;23.00;1.00
5457;DHT22;2751;49.802;9.944;2022-07-11T09:27:41;22.50;1.00
5457;DHT22;2751;49.802;9.944;2022-07-11T09:30:33;22.10;71.70
5457;DHT22;2751;49.802;9.944;2022-07-11T09:33:04;22.00;16.50
5457;DHT22;2751;49.802;9.944;2022-07-11T09:35:33;21.60;1.00
5457;DHT22;2751;49.802;9.944;2022-07-11T09:38:03;21.20;1.00
5457;DHT22;2751;49.802;9.944;2022-07-11T09:40:30;21.30;1.00
5457;DHT22;2751;49.802;9.944;2022-07-11T09:42:58;21.70;1.00
5457;DHT22;2751;49.802;9.944;2022-07-11T09:45:27;21.70;1.00
5457;DHT22;2751;49.802;9.944;2022-07-11T09:47:55;21.70;99.90
5457;DHT22;2751;49.802;9.944;2022-07-11T09:50:26;21.70;96.00
5457;DHT22;2751;49.802;9.944;2022-07-11T09:53:04;21.90;99.90
5457;DHT22;2751;49.802;9.944;2022-07-11T09:55:33;21.90;99.90
5457;DHT22;2751;49.802;9.944;2022-07-11T09:58:03;22.20;99.90
5457;DHT22;2751;49.802;9.944;2022-07-11T10:00:31;22.40;1.00
5457;DHT22;2751;49.802;9.944;2022-07-11T10:02:58;22.40;99.90
5457;DHT22;2751;49.802;9.944;2022-07-11T10:05:27;22.50;99.90
5457;DHT22;2751;49.802;9.944;2022-07-11T10:07:55;22.70;99.90
5457;DHT22;2751;49.802;9.944;2022-07-11T10:10:23;22.70;99.90
5457;DHT22;2751;49.802;9.944;2022-07-11T10:12:51;22.70;99.90
5457;DHT22;2751;49.802;9.944;2022-07-11T10:15:20;22.70;1.00
5457;DHT22;2751;49.802;9.944;2022-07-11T10:17:57;22.50;1.00
5457;DHT22;2751;49.802;9.944;2022-07-11T10:20:32;22.30;1.00
5457;DHT22;2751;49.802;9.944;2022-07-11T10:23:06;21.80;1.00
5457;DHT22;2751;49.802;9.944;2022-07-11T10:25:40;21.10;1.00
5457;DHT22;2751;49.802;9.944;2022-07-11T10:28:18;20.60;1.00
5457;DHT22;2751;49.802;9.944;2022-07-11T10:30:50;20.40;1.00
5457;DHT22;2751;49.802;9.944;2022-07-11T10:33:18;20.20;1.00
5457;DHT22;2751;49.802;9.944;2022-07-11T10:35:48;19.90;1.00
5457;DHT22;2751;49.802;9.944;2022-07-11T10:38:16;19.80;37.40
5457;DHT22;2751;49.802;9.944;2022-07-11T10:40:45;19.80;1.00
5457;DHT22;2751;49.802;9.944;2022-07-11T10:43:14;19.70;99.90
5457;DHT22;2751;49.802;9.944;2022-07-11T10:45:55;19.60;90.50
5457;DHT22;2751;49.802;9.944;2022-07-11T10:48:23;19.50;99.90
5457;DHT22;2751;49.802;9.944;2022-07-11T10:51:03;19.50;91.00
5457;DHT22;2751;49.802;9.944;2022-07-11T10:53:32;19.50;1.00
5457;DHT22;2751;49.802;9.944;2022-07-11T10:56:15;19.50;1.00
5457;DHT22;2751;49.802;9.944;2022-07-11T10:58:45;19.60;1.00
5457;DHT22;2751;49.802;9.944;2022-07-11T11:01:20;19.80;99.90
5457;DHT22;2751;49.802;9.944;2022-07-11T11:03:47;20.10;99.90
5457;DHT22;2751;49.802;9.944;2022-07-11T11:06:16;20.40;99.90
5457;DHT22;2751;49.802;9.944;2022-07-11T11:08:46;20.50;99.90
5457;DHT22;2751;49.802;9.944;2022-07-11T11:11:35;20.80;99.90
5457;DHT22;2751;49.802;9.944;2022-07-11T11:14:24;21.10;66.80
5457;DHT22;2751;49.802;9.944;2022-07-11T11:16:53;21.40;45.00
5457;DHT22;2751;49.802;9.944;2022-07-11T11:19:54;21.70;22.40
5457;DHT22;2751;49.802;9.944;2022-07-11T11:22:24;21.90;55.70
5457;DHT22;2751;49.802;9.944;2022-07-11T11:24:53;22.10;45.40
5457;DHT22;2751;49.802;9.944;2022-07-11T11:27:21;22.40;8.50
5457;DHT22;2751;49.802;9.944;2022-07-11T11:29:50;22.80;71.90
5457;DHT22;2751;49.802;9.944;2022-07-11T11:32:18;23.10;1.00
5457;DHT22;2751;49.802;9.944;2022-07-11T11:34:47;23.50;99.90
5457;DHT22;2751;49.802;9.944;2022-07-11T11:37:16;24.00;99.90
5457;DHT22;2751;49.802;9.944;2022-07-11T11:39:45;24.20;99.90
5457;DHT22;2751;49.802;9.944;2022-07-11T11:42:15;24.80;1.00
5457;DHT22;2751;49.802;9.944;2022-07-11T11:44:56;25.80;26.20
5457;DHT22;2751;49.802;9.944;2022-07-11T11:47:25;26.40;1.00
5457;DHT22;2751;49.802;9.944;2022-07-11T11:49:54;25.90;99.90
5457;DHT22;2751;49.802;9.944;2022-07-11T11:52:21;26.40;1.00
5457;DHT22;2751;49.802;9.944;2022-07-11T11:54:56;25.90;1.00
5457;DHT22;2751;49.802;9.944;2022-07-11T11:57:25;26.00;1.00
5457;DHT22;2751;49.802;9.944;2022-07-11T11:59:52;26.00;1.00
5457;DHT22;2751;49.802;9.944;2022-07-11T12:02:24;25.50;1.00
5457;DHT22;2751;49.802;9.944;2022-07-11T12:04:51;25.40;1.00
5457;DHT22;2751;49.802;9.944;2022-07-11T12:07:28;25.50;1.00
5457;DHT22;2751;49.802;9.944;2022-07-11T12:09:58;25.80;1.00
5457;DHT22;2751;49.802;9.944;2022-07-11T12:12:30;26.10;1.00
5457;DHT22;2751;49.802;9.944;2022-07-11T12:15:27;26.10;1.00
5457;DHT22;2751;49.802;9.944;2022-07-11T12:18:01;26.60;1.00
5457;DHT22;2751;49.802;9.944;2022-07-11T12:20:40;27.10;1.00
5457;DHT22;2751;49.802;9.944;2022-07-11T12:23:09;27.20;1.00
5457;DHT22;2751;49.802;9.944;2022-07-11T12:25:38;26.90;1.00
5457;DHT22;2751;49.802;9.944;2022-07-11T12:28:05;26.90;1.00
5457;DHT22;2751;49.802;9.944;2022-07-11T12:30:33;26.70;1.00
5457;DHT22;2751;49.802;9.944;2022-07-11T12:33:08;25.80;1.00
5457;DHT22;2751;49.802;9.944;2022-07-11T12:35:35;25.70;1.00
5457;DHT22;2751;49.802;9.944;2022-07-11T12:38:03;25.70;1.00
5457;DHT22;2751;49.802;9.944;2022-07-11T12:40:31;26.00;1.00
5457;DHT22;2751;49.802;9.944;2022-07-11T12:42:59;25.80;1.00
5457;DHT22;2751;49.802;9.944;2022-07-11T12:46:01;25.80;1.00
5457;DHT22;2751;49.802;9.944;2022-07-11T12:48:37;26.20;1.00
5457;DHT22;2751;49.802;9.944;2022-07-11T12:51:04;26.90;1.00
5457;DHT22;2751;49.802;9.944;2022-07-11T12:53:31;27.40;1.00
5457;DHT22;2751;49.802;9.944;2022-07-11T12:55:58;28.00;1.00
5457;DHT22;2751;49.802;9.944;2022-07-11T12:58:37;26.80;1.00
5457;DHT22;2751;49.802;9.944;2022-07-11T13:01:05;26.20;1.00
5457;DHT22;2751;49.802;9.944;2022-07-11T13:03:33;25.80;1.00
5457;DHT22;2751;49.802;9.944;2022-07-11T13:06:01;25.60;1.00
5457;DHT22;2751;49.802;9.944;2022-07-11T13:08:29;25.40;1.00
5457;DHT22;2751;49.802;9.944;2022-07-11T13:11:08;25.30;1.00
5457;DHT22;2751;49.802;9.944;2022-07-11T13:13:36;25.20;1.00
5457;DHT22;2751;49.802;9.944;2022-07-11T13:16:04;25.50;1.00
5457;DHT22;2751;49.802;9.944;2022-07-11T13:18:33;25.80;1.00
5457;DHT22;2751;49.802;9.944;2022-07-11T13:21:00;25.90;1.00
5457;DHT22;2751;49.802;9.944;2022-07-11T13:23:28;26.30;1.00
5457;DHT22;2751;49.802;9.944;2022-07-11T13:25:55;26.10;1.00
5457;DHT22;2751;49.802;9.944;2022-07-11T13:28:23;25.80;1.00
5457;DHT22;2751;49.802;9.944;2022-07-11T13:30:51;26.60;1.00
5457;DHT22;2751;49.802;9.944;2022-07-11T13:33:19;27.20;1.00
5457;DHT22;2751;49.802;9.944;2022-07-11T13:35:46;27.30;1.00
5457;DHT22;2751;49.802;9.944;2022-07-11T13:38:13;26.70;1.00
5457;DHT22;2751;49.802;9.944;2022-07-11T13:40:40;26.40;1.00
5457;DHT22;2751;49.802;9.944;2022-07-11T13:43:07;26.20;1.00
5457;DHT22;2751;49.802;9.944;2022-07-11T13:45:35;25.90;1.00
5457;DHT22;2751;49.802;9.944;2022-07-11T13:48:04;26.00;1.00
5457;DHT22;2751;49.802;9.944;2022-07-11T13:50:31;26.00;1.00
5457;DHT22;2751;49.802;9.944;2022-07-11T13:52:58;25.90;1.00
5457;DHT22;2751;49.802;9.944;2022-07-11T13:55:25;26.10;1.00
5457;DHT22;2751;49.802;9.944;2022-07-11T13:57:55;26.10;1.00
5457;DHT22;2751;49.802;9.944;2022-07-11T14:00:22;25.80;1.00
5457;DHT22;2751;49.802;9.944;2022-07-11T14:02:50;25.60;1.00
5457;DHT22;2751;49.802;9.944;2022-07-11T14:05:19;25.60;1.00
5457;DHT22;2751;49.802;9.944;2022-07-11T14:07:46;25.80;1.00
5457;DHT22;2751;49.802;9.944;2022-07-11T14:10:13;25.80;1.00
5457;DHT22;2751;49.802;9.944;2022-07-11T14:12:41;25.80;1.00
5457;DHT22;2751;49.802;9.944;2022-07-11T14:15:08;26.00;1.00
5457;DHT22;2751;49.802;9.944;2022-07-11T14:17:36;26.20;1.00
5457;DHT22;2751;49.802;9.944;2022-07-11T14:20:03;26.60;1.00
5457;DHT22;2751;49.802;9.944;2022-07-11T14:22:31;26.80;1.00
5457;DHT22;2751;49.802;9.944;2022-07-11T14:24:58;27.00;1.00
5457;DHT22;2751;49.802;9.944;2022-07-11T14:27:25;27.20;1.00
5457;DHT22;2751;49.802;9.944;2022-07-11T14:29:52;27.20;1.00
5457;DHT22;2751;49.802;9.944;2022-07-11T14:32:19;27.00;1.00
5457;DHT22;2751;49.802;9.944;2022-07-11T14:34:47;27.10;1.00
5457;DHT22;2751;49.802;9.944;2022-07-11T14:37:14;27.50;1.00
5457;DHT22;2751;49.802;9.944;2022-07-11T14:39:42;27.50;1.00
5457;DHT22;2751;49.802;9.944;2022-07-11T14:42:09;27.60;1.00
5457;DHT22;2751;49.802;9.944;2022-07-11T14:44:36;27.90;1.00
5457;DHT22;2751;49.802;9.944;2022-07-11T14:47:03;27.50;1.00
5457;DHT22;2751;49.802;9.944;2022-07-11T14:49:30;27.40;1.00
5457;DHT22;2751;49.802;9.944;2022-07-11T14:51:58;27.00;1.00
5457;DHT22;2751;49.802;9.944;2022-07-11T14:54:24;26.60;1.00
5457;DHT22;2751;49.802;9.944;2022-07-11T14:56:53;26.50;1.00
5457;DHT22;2751;49.802;9.944;2022-07-11T14:59:19;26.10;1.00
5457;DHT22;2751;49.802;9.944;2022-07-11T15:01:46;26.10;1.00
5457;DHT22;2751;49.802;9.944;2022-07-11T15:04:13;26.10;1.00
5457;DHT22;2751;49.802;9.944;2022-07-11T15:06:42;26.50;1.00
5457;DHT22;2751;49.802;9.944;2022-07-11T15:09:26;27.40;1.00
5457;DHT22;2751;49.802;9.944;2022-07-11T15:12:12;27.50;1.00
5457;DHT22;2751;49.802;9.944;2022-07-11T15:14:50;29.20;1.00
5457;DHT22;2751;49.802;9.944;2022-07-11T15:17:17;29.40;1.00
5457;DHT22;2751;49.802;9.944;2022-07-11T15:19:44;28.20;1.00
5457;DHT22;2751;49.802;9.944;2022-07-11T15:22:11;27.30;1.00
5457;DHT22;2751;49.802;9.944;2022-07-11T15:24:38;26.90;1.00
5457;DHT22;2751;49.802;9.944;2022-07-11T15:27:05;26.90;1.00
5457;DHT22;2751;49.802;9.944;2022-07-11T15:29:33;27.10;1.00
5457;DHT22;2751;49.802;9.944;2022-07-11T15:32:00;27.00;1.00
5457;DHT22;2751;49.802;9.944;2022-07-11T15:34:27;26.80;1.00
5457;DHT22;2751;49.802;9.944;2022-07-11T15:36:54;26.50;1.00
5457;DHT22;2751;49.802;9.944;2022-07-11T15:39:21;26.90;1.00
5457;DHT22;2751;49.802;9.944;2022-07-11T15:41:50;27.30;1.00
5457;DHT22;2751;49.802;9.944;2022-07-11T15:44:16;27.50;1.00
5457;DHT22;2751;49.802;9.944;2022-07-11T15:46:45;27.10;1.00
5457;DHT22;2751;49.802;9.944;2022-07-11T15:49:12;27.00;1.00
5457;DHT22;2751;49.802;9.944;2022-07-11T15:51:40;27.40;1.00
5457;DHT22;2751;49.802;9.944;2022-07-11T15:54:06;27.40;1.00
5457;DHT22;2751;49.802;9.944;2022-07-11T15:56:34;27.60;1.00
5457;DHT22;2751;49.802;9.944;2022-07-11T15:59:01;27.20;1.00
5457;DHT22;2751;49.802;9.944;2022-07-11T16:01:28;26.80;1.00
5457;DHT22;2751;49.802;9.944;2022-07-11T16:03:59;26.30;1.00
5457;DHT22;2751;49.802;9.944;2022-07-11T16:06:26;26.20;1.00
5457;DHT22;2751;49.802;9.944;2022-07-11T16:08:54;26.50;1.00
5457;DHT22;2751;49.802;9.944;2022-07-11T16:11:21;26.70;1.00
5457;DHT22;2751;49.802;9.944;2022-07-11T16:13:48;26.80;1.00
5457;DHT22;2751;49.802;9.944;2022-07-11T16:16:15;26.60;1.00
5457;DHT22;2751;49.802;9.944;2022-07-11T16:18:42;26.00;1.00
5457;DHT22;2751;49.802;9.944;2022-07-11T16:21:11;25.80;1.00
5457;DHT22;2751;49.802;9.944;2022-07-11T16:23:37;25.60;1.00